Time;durP1;ratioP1;P1;durP2;ratioP2;P2;SDS_P1;SDS_P2;PMS_P1;PMS_P2;Temp;Humidity;BMP_temperature;BMP_pressure;BME280_temperature;BME280_humidity;BME280_pressure;Samples;Min_cycle;Max_cycle;Signal;HPM_P1;HPM_P2
2023/10/22 00:01:54;;;;;;;3.37;3.07;;;;;;;;;;6185854;23;20182;-90
2023/10/22 00:04:23;;;;;;;5.43;3.10;;;;;;;;;;6184562;23;20190;-90
2023/10/22 00:06:51;;;;;;;5.50;3.17;;;;;;;;;;6184665;23;20170;-89
2023/10/22 00:09:20;;;;;;;2.80;2.37;;;;;;;;;;6185315;23;20193;-89
2023/10/22 00:11:50;;;;;;;4.47;2.93;;;;;;;;;;6184889;23;20175;-90
2023/10/22 00:14:18;;;;;;;7.60;3.03;;;;;;;;;;6184316;23;20201;-90
2023/10/22 00:16:47;;;;;;;2.80;2.33;;;;;;;;;;6184651;23;20171;-90
2023/10/22 00:19:15;;;;;;;2.33;2.13;;;;;;;;;;6184763;23;20206;-90
2023/10/22 00:21:45;;;;;;;4.50;3.10;;;;;;;;;;6185272;23;20171;-89
2023/10/22 00:24:13;;;;;;;3.33;3.03;;;;;;;;;;6184186;23;20198;-91
2023/10/22 00:26:42;;;;;;;3.93;3.47;;;;;;;;;;6184208;23;20171;-90
2023/10/22 00:29:12;;;;;;;5.53;3.70;;;;;;;;;;6184964;23;20488;-90
2023/10/22 00:31:40;;;;;;;4.80;4.20;;;;;;;;;;6185208;23;20179;-90
2023/10/22 00:34:09;;;;;;;4.70;3.47;;;;;;;;;;6184450;23;20172;-90
2023/10/22 00:36:41;;;;;;;5.53;5.00;;;;;;;;;;6184390;23;20175;-90
2023/10/22 00:39:09;;;;;;;7.43;5.20;;;;;;;;;;6184525;23;20175;-88
2023/10/22 00:41:38;;;;;;;4.60;3.70;;;;;;;;;;6184570;23;20178;-90
2023/10/22 00:44:07;;;;;;;9.67;7.13;;;;;;;;;;6183997;23;20223;-89
2023/10/22 00:46:37;;;;;;;7.80;6.70;;;;;;;;;;6183852;23;20171;-89
2023/10/22 00:49:06;;;;;;;4.90;3.90;;;;;;;;;;6185047;23;20171;-90
2023/10/22 00:51:35;;;;;;;7.23;4.67;;;;;;;;;;6184664;23;20190;-90
2023/10/22 00:54:04;;;;;;;6.43;5.83;;;;;;;;;;6183865;23;20175;-90
2023/10/22 00:56:32;;;;;;;3.40;2.70;;;;;;;;;;6184524;23;20183;-89
2023/10/22 00:59:03;;;;;;;6.83;5.33;;;;;;;;;;6184818;23;20223;-89
2023/10/22 01:01:32;;;;;;;5.80;5.20;;;;;;;;;;6185059;23;20179;-90
2023/10/22 01:04:02;;;;;;;7.30;5.50;;;;;;;;;;6184090;23;20199;-89
2023/10/22 01:06:31;;;;;;;7.13;5.70;;;;;;;;;;6184259;23;20171;-89
2023/10/22 01:09:00;;;;;;;8.73;6.27;;;;;;;;;;6184646;23;20225;-90
2023/10/22 01:11:29;;;;;;;10.07;7.43;;;;;;;;;;6184726;23;20171;-89
2023/10/22 01:13:58;;;;;;;7.70;5.20;;;;;;;;;;6183872;23;20198;-89
2023/10/22 01:16:26;;;;;;;7.80;5.43;;;;;;;;;;6184318;23;20226;-89
2023/10/22 01:18:55;;;;;;;5.73;4.37;;;;;;;;;;6184278;23;20214;-88
2023/10/22 01:21:28;;;;;;;1.57;1.47;;;;;;;;;;6184722;23;20171;-89
2023/10/22 01:23:59;;;;;;;5.27;4.77;;;;;;;;;;6183660;23;20183;-90
2023/10/22 01:26:27;;;;;;;5.03;3.80;;;;;;;;;;6184366;23;20179;-89
2023/10/22 01:28:56;;;;;;;7.30;6.53;;;;;;;;;;6184332;23;20194;-89
2023/10/22 01:31:24;;;;;;;10.27;9.17;;;;;;;;;;6184022;23;20182;-90
2023/10/22 01:33:53;;;;;;;10.73;9.03;;;;;;;;;;6182982;23;20164;-90
2023/10/22 01:36:22;;;;;;;4.63;3.73;;;;;;;;;;6183959;23;20178;-89
2023/10/22 01:38:50;;;;;;;6.30;3.77;;;;;;;;;;6183876;23;20178;-90
2023/10/22 01:41:20;;;;;;;10.17;9.23;;;;;;;;;;6183829;23;20253;-90
2023/10/22 01:43:49;;;;;;;11.47;9.20;;;;;;;;;;6183205;23;20188;-89
2023/10/22 01:46:17;;;;;;;1.20;1.20;;;;;;;;;;6184378;23;20179;-89
2023/10/22 01:48:46;;;;;;;6.70;5.20;;;;;;;;;;6184461;23;20217;-88
2023/10/22 01:51:14;;;;;;;5.40;4.00;;;;;;;;;;6183232;23;20167;-90
2023/10/22 01:53:43;;;;;;;6.13;4.50;;;;;;;;;;6183178;23;20195;-89
2023/10/22 01:56:12;;;;;;;1.40;1.37;;;;;;;;;;6184053;23;20266;-89
2023/10/22 01:58:42;;;;;;;0.60;0.60;;;;;;;;;;6184104;23;20235;-89
2023/10/22 02:01:11;;;;;;;3.33;3.03;;;;;;;;;;6183968;23;20185;-90
2023/10/22 02:03:40;;;;;;;1.53;1.43;;;;;;;;;;6183181;23;20276;-89
2023/10/22 02:06:12;;;;;;;1.03;1.03;;;;;;;;;;6183797;23;20194;-89
2023/10/22 02:08:42;;;;;;;0.60;0.60;;;;;;;;;;6183405;23;20172;-90
2023/10/22 02:11:10;;;;;;;0.93;0.93;;;;;;;;;;6182757;23;20181;-89
2023/10/22 02:13:39;;;;;;;1.47;1.37;;;;;;;;;;6183525;23;20214;-89
2023/10/22 02:16:09;;;;;;;1.13;1.03;;;;;;;;;;6184590;23;20179;-90
2023/10/22 02:18:37;;;;;;;0.40;0.40;;;;;;;;;;6183680;23;20194;-90
2023/10/22 02:21:07;;;;;;;0.60;0.60;;;;;;;;;;6183548;23;20179;-89
2023/10/22 02:23:35;;;;;;;3.17;2.97;;;;;;;;;;6183342;23;20168;-90
2023/10/22 02:26:05;;;;;;;0.97;0.97;;;;;;;;;;6184086;23;20185;-90
2023/10/22 02:28:33;;;;;;;3.60;2.77;;;;;;;;;;6183988;23;20184;-89
2023/10/22 02:31:04;;;;;;;1.60;1.57;;;;;;;;;;6183429;23;20254;-89
2023/10/22 02:33:34;;;;;;;8.57;5.13;;;;;;;;;;6183913;23;20172;-90
2023/10/22 02:36:04;;;;;;;15.83;6.23;;;;;;;;;;6184063;23;20225;-89
2023/10/22 02:38:32;;;;;;;9.57;4.73;;;;;;;;;;6183877;23;20207;-89
2023/10/22 02:41:02;;;;;;;1.43;1.33;;;;;;;;;;6183388;23;20176;-89
2023/10/22 02:43:31;;;;;;;8.47;2.20;;;;;;;;;;6183294;23;20200;-90
2023/10/22 02:45:59;;;;;;;0.90;0.87;;;;;;;;;;6183253;23;20191;-89
2023/10/22 02:48:28;;;;;;;4.50;1.63;;;;;;;;;;6183976;23;20226;-89
2023/10/22 02:50:58;;;;;;;5.33;2.00;;;;;;;;;;6183131;23;20202;-89
2023/10/22 02:53:26;;;;;;;5.97;2.03;;;;;;;;;;6183912;23;20176;-90
2023/10/22 02:56:00;;;;;;;0.80;0.80;;;;;;;;;;6183906;23;20188;-89
2023/10/22 02:58:29;;;;;;;1.30;1.20;;;;;;;;;;6184157;23;20167;-89
2023/10/22 03:01:04;;;;;;;1.13;1.00;;;;;;;;;;6183412;23;20172;-89
2023/10/22 03:03:38;;;;;;;8.63;2.43;;;;;;;;;;6183568;23;20179;-90
2023/10/22 03:06:09;;;;;;;4.23;2.43;;;;;;;;;;6183879;23;20198;-90
2023/10/22 03:08:39;;;;;;;5.30;2.10;;;;;;;;;;6183397;23;20202;-89
2023/10/22 03:11:08;;;;;;;3.70;1.57;;;;;;;;;;6183261;23;20250;-90
2023/10/22 03:13:37;;;;;;;7.70;3.17;;;;;;;;;;6183149;23;20230;-89
2023/10/22 03:16:11;;;;;;;2.67;1.47;;;;;;;;;;6183768;23;20179;-90
2023/10/22 03:18:40;;;;;;;0.40;0.40;;;;;;;;;;6183166;23;20194;-91
2023/10/22 03:21:14;;;;;;;0.40;0.40;;;;;;;;;;6183442;23;20215;-90
2023/10/22 03:23:43;;;;;;;0.40;0.40;;;;;;;;;;6186001;23;20178;-90
2023/10/22 03:26:14;;;;;;;0.40;0.40;;;;;;;;;;6185666;23;20281;-90
2023/10/22 03:28:43;;;;;;;0.40;0.40;;;;;;;;;;6184844;23;20201;-89
2023/10/22 03:31:11;;;;;;;0.40;0.40;;;;;;;;;;6185090;23;20179;-90
2023/10/22 03:33:40;;;;;;;0.40;0.40;;;;;;;;;;6185837;23;20172;-89
2023/10/22 03:36:11;;;;;;;0.40;0.40;;;;;;;;;;6185068;23;20213;-90
2023/10/22 03:38:42;;;;;;;0.40;0.40;;;;;;;;;;6185115;23;20182;-89
2023/10/22 03:41:10;;;;;;;0.40;0.40;;;;;;;;;;6185244;23;20233;-90
2023/10/22 03:43:39;;;;;;;0.40;0.40;;;;;;;;;;6185574;23;20190;-90
2023/10/22 03:46:07;;;;;;;0.40;0.40;;;;;;;;;;6185363;23;20187;-90
2023/10/22 03:48:36;;;;;;;0.40;0.40;;;;;;;;;;6184986;23;20204;-90
2023/10/22 03:51:04;;;;;;;0.40;0.40;;;;;;;;;;6185607;23;20175;-89
2023/10/22 03:53:33;;;;;;;1.00;0.80;;;;;;;;;;6185065;23;20181;-89
2023/10/22 03:56:03;;;;;;;0.40;0.40;;;;;;;;;;6184777;23;20179;-90
2023/10/22 03:58:31;;;;;;;0.40;0.40;;;;;;;;;;6184614;23;20175;-90
2023/10/22 04:01:00;;;;;;;0.40;0.40;;;;;;;;;;6184996;23;20189;-90
2023/10/22 04:03:28;;;;;;;0.40;0.40;;;;;;;;;;6184288;23;20175;-90
2023/10/22 04:05:57;;;;;;;0.40;0.40;;;;;;;;;;6184748;23;20234;-88
2023/10/22 04:08:26;;;;;;;0.40;0.40;;;;;;;;;;6184669;23;20183;-89
2023/10/22 04:10:55;;;;;;;0.40;0.40;;;;;;;;;;6184565;23;20186;-89
2023/10/22 04:13:25;;;;;;;0.40;0.40;;;;;;;;;;6184444;23;20209;-89
2023/10/22 04:15:54;;;;;;;0.40;0.40;;;;;;;;;;6185458;23;20171;-89
2023/10/22 04:18:22;;;;;;;0.40;0.40;;;;;;;;;;6183736;23;20175;-90
2023/10/22 04:20:51;;;;;;;0.40;0.40;;;;;;;;;;6185131;23;20186;-89
2023/10/22 04:23:19;;;;;;;0.40;0.40;;;;;;;;;;6184942;23;20214;-89
2023/10/22 04:25:48;;;;;;;0.40;0.40;;;;;;;;;;6184525;23;20187;-89
2023/10/22 04:28:17;;;;;;;0.40;0.40;;;;;;;;;;6184015;23;20178;-90
2023/10/22 04:30:46;;;;;;;0.43;0.43;;;;;;;;;;6184764;23;20182;-89
2023/10/22 04:33:15;;;;;;;0.50;0.50;;;;;;;;;;6184530;23;20178;-89
2023/10/22 04:35:43;;;;;;;0.47;0.47;;;;;;;;;;6183948;23;20178;-89
2023/10/22 04:38:13;;;;;;;0.50;0.50;;;;;;;;;;6184303;23;20182;-89
2023/10/22 04:40:42;;;;;;;0.50;0.50;;;;;;;;;;6184687;23;20175;-89
2023/10/22 04:43:12;;;;;;;0.40;0.40;;;;;;;;;;6184565;23;20175;-89
2023/10/22 04:45:48;;;;;;;0.50;0.50;;;;;;;;;;6184225;23;20226;-89
2023/10/22 04:48:17;;;;;;;0.40;0.40;;;;;;;;;;6183879;23;20173;-89
2023/10/22 04:50:45;;;;;;;0.40;0.40;;;;;;;;;;6184645;23;20177;-91
2023/10/22 04:53:14;;;;;;;0.50;0.50;;;;;;;;;;6184424;23;20206;-88
2023/10/22 04:55:42;;;;;;;0.40;0.40;;;;;;;;;;6184194;23;20194;-90
2023/10/22 04:58:12;;;;;;;0.50;0.50;;;;;;;;;;6184071;23;20179;-89
2023/10/22 05:00:41;;;;;;;0.50;0.50;;;;;;;;;;6184451;23;20183;-89
2023/10/22 05:03:12;;;;;;;0.43;0.43;;;;;;;;;;6183927;23;20171;-89
2023/10/22 05:05:41;;;;;;;0.40;0.40;;;;;;;;;;6183847;23;20207;-88
2023/10/22 05:08:10;;;;;;;0.50;0.50;;;;;;;;;;6184240;23;20183;-89
2023/10/22 05:10:39;;;;;;;0.40;0.40;;;;;;;;;;6184471;23;20175;-91
2023/10/22 05:13:07;;;;;;;0.50;0.50;;;;;;;;;;6183839;23;20230;-89
2023/10/22 05:15:35;;;;;;;0.40;0.40;;;;;;;;;;6183227;23;20207;-90
2023/10/22 05:18:05;;;;;;;0.40;0.40;;;;;;;;;;6184294;23;20179;-89
2023/10/22 05:20:36;;;;;;;0.40;0.40;;;;;;;;;;6184110;23;20199;-89
2023/10/22 05:23:05;;;;;;;0.47;0.47;;;;;;;;;;6184213;23;20183;-87
2023/10/22 05:25:33;;;;;;;0.50;0.50;;;;;;;;;;6183854;23;20210;-89
2023/10/22 05:28:02;;;;;;;0.50;0.50;;;;;;;;;;6184157;23;20175;-89
2023/10/22 05:30:31;;;;;;;0.40;0.40;;;;;;;;;;6184064;23;20171;-89
2023/10/22 05:33:01;;;;;;;0.43;0.43;;;;;;;;;;6183916;23;20185;-88
2023/10/22 05:35:31;;;;;;;0.40;0.40;;;;;;;;;;6183699;23;20179;-89
2023/10/22 05:38:02;;;;;;;0.50;0.50;;;;;;;;;;6184365;23;20435;-90
2023/10/22 05:40:36;;;;;;;0.40;0.40;;;;;;;;;;6183895;23;20352;-88
2023/10/22 05:43:05;;;;;;;0.40;0.40;;;;;;;;;;6183664;23;20175;-89
2023/10/22 05:45:33;;;;;;;0.50;0.50;;;;;;;;;;6183573;23;20187;-89
2023/10/22 05:48:02;;;;;;;0.50;0.50;;;;;;;;;;6184043;23;20266;-89
2023/10/22 05:50:32;;;;;;;0.40;0.40;;;;;;;;;;6183806;23;20458;-90
2023/10/22 05:53:01;;;;;;;0.50;0.50;;;;;;;;;;6183616;23;20175;-89
2023/10/22 05:55:30;;;;;;;0.40;0.40;;;;;;;;;;6183774;23;20176;-90
2023/10/22 05:57:58;;;;;;;0.40;0.40;;;;;;;;;;6184032;23;20167;-90
2023/10/22 06:00:27;;;;;;;0.43;0.43;;;;;;;;;;6184513;23;20167;-88
2023/10/22 06:02:55;;;;;;;0.40;0.40;;;;;;;;;;6183961;23;20178;-90
2023/10/22 06:05:24;;;;;;;0.47;0.47;;;;;;;;;;6183456;23;20167;-89
2023/10/22 06:07:53;;;;;;;0.40;0.40;;;;;;;;;;6184134;23;20191;-89
2023/10/22 06:10:27;;;;;;;0.40;0.40;;;;;;;;;;6184406;23;20174;-89
2023/10/22 06:12:56;;;;;;;0.43;0.43;;;;;;;;;;6183846;23;20178;-90
2023/10/22 06:15:27;;;;;;;0.40;0.40;;;;;;;;;;6183139;23;20206;-89
2023/10/22 06:17:55;;;;;;;0.50;0.50;;;;;;;;;;6183695;23;20163;-90
2023/10/22 06:20:24;;;;;;;0.47;0.47;;;;;;;;;;6183888;23;20199;-89
2023/10/22 06:22:54;;;;;;;0.40;0.40;;;;;;;;;;6182733;23;20175;-90
2023/10/22 06:25:24;;;;;;;0.50;0.50;;;;;;;;;;6183026;23;20209;-89
2023/10/22 06:27:55;;;;;;;0.40;0.40;;;;;;;;;;6183659;23;20194;-89
2023/10/22 06:30:23;;;;;;;0.50;0.50;;;;;;;;;;6184064;23;20190;-89
2023/10/22 06:32:53;;;;;;;0.40;0.40;;;;;;;;;;6183577;23;20258;-89
2023/10/22 06:35:21;;;;;;;0.40;0.40;;;;;;;;;;6183859;23;20175;-88
2023/10/22 06:37:51;;;;;;;0.50;0.50;;;;;;;;;;6184609;23;20171;-90
2023/10/22 06:40:20;;;;;;;0.40;0.40;;;;;;;;;;6184159;23;20203;-89
2023/10/22 06:42:50;;;;;;;0.50;0.50;;;;;;;;;;6183405;23;20194;-89
2023/10/22 06:45:19;;;;;;;0.50;0.50;;;;;;;;;;6183229;23;20178;-89
2023/10/22 06:47:48;;;;;;;0.50;0.50;;;;;;;;;;6183850;23;20229;-90
2023/10/22 06:50:16;;;;;;;0.50;0.50;;;;;;;;;;6183436;23;20179;-89
2023/10/22 06:52:45;;;;;;;0.40;0.40;;;;;;;;;;6183098;23;20175;-90
2023/10/22 06:55:13;;;;;;;0.40;0.40;;;;;;;;;;6183789;23;20210;-89
2023/10/22 06:57:44;;;;;;;0.50;0.50;;;;;;;;;;6185579;23;20191;-89
2023/10/22 07:00:15;;;;;;;0.50;0.50;;;;;;;;;;6185561;23;20190;-89
2023/10/22 07:02:45;;;;;;;0.50;0.50;;;;;;;;;;6185293;23;20262;-90
2023/10/22 07:05:15;;;;;;;0.50;0.50;;;;;;;;;;6185333;23;20259;-90
2023/10/22 07:07:44;;;;;;;0.50;0.50;;;;;;;;;;6185357;23;20257;-90
2023/10/22 07:10:12;;;;;;;0.50;0.50;;;;;;;;;;6184877;23;20201;-89
2023/10/22 07:12:41;;;;;;;0.40;0.40;;;;;;;;;;6185381;23;20182;-89
2023/10/22 07:15:12;;;;;;;0.50;0.50;;;;;;;;;;6185369;23;20277;-89
2023/10/22 07:17:42;;;;;;;0.50;0.50;;;;;;;;;;6185625;23;20179;-89
2023/10/22 07:20:12;;;;;;;0.47;0.47;;;;;;;;;;6185108;23;20191;-90
2023/10/22 07:22:40;;;;;;;0.50;0.50;;;;;;;;;;6184899;23;20199;-89
2023/10/22 07:25:09;;;;;;;0.50;0.50;;;;;;;;;;6185053;23;20171;-89
2023/10/22 07:27:38;;;;;;;0.40;0.40;;;;;;;;;;6185465;23;20197;-89
2023/10/22 07:30:07;;;;;;;0.50;0.50;;;;;;;;;;6184921;23;20183;-90
2023/10/22 07:32:36;;;;;;;0.50;0.50;;;;;;;;;;6185464;23;20258;-89
2023/10/22 07:35:08;;;;;;;0.50;0.50;;;;;;;;;;6185699;23;20262;-90
2023/10/22 07:37:39;;;;;;;0.40;0.40;;;;;;;;;;6185441;23;20171;-89
2023/10/22 07:40:09;;;;;;;0.40;0.40;;;;;;;;;;6184816;23;20178;-89
2023/10/22 07:42:37;;;;;;;0.50;0.50;;;;;;;;;;6184988;23;20172;-89
2023/10/22 07:45:07;;;;;;;0.50;0.50;;;;;;;;;;6185095;23;20167;-89
2023/10/22 07:47:36;;;;;;;0.50;0.50;;;;;;;;;;6185697;23;20206;-89
2023/10/22 07:50:06;;;;;;;0.50;0.50;;;;;;;;;;6184536;23;20198;-89
2023/10/22 07:52:36;;;;;;;1.13;0.83;;;;;;;;;;6185211;23;20179;-90
2023/10/22 07:55:05;;;;;;;0.60;0.60;;;;;;;;;;6184832;23;20172;-90
2023/10/22 07:57:35;;;;;;;3.37;0.90;;;;;;;;;;6185029;23;20170;-89
2023/10/22 08:00:06;;;;;;;0.67;0.67;;;;;;;;;;6185016;23;20179;-90
2023/10/22 08:02:34;;;;;;;0.80;0.80;;;;;;;;;;6185024;23;20262;-90
2023/10/22 08:05:02;;;;;;;0.77;0.77;;;;;;;;;;6185353;23;20214;-89
2023/10/22 08:07:33;;;;;;;2.73;1.00;;;;;;;;;;6184857;23;20209;-89
2023/10/22 08:10:01;;;;;;;1.97;0.80;;;;;;;;;;6184580;23;20185;-89
2023/10/22 08:12:30;;;;;;;0.80;0.80;;;;;;;;;;6184890;23;20171;-90
2023/10/22 08:14:58;;;;;;;2.00;1.90;;;;;;;;;;6184744;23;20203;-89
2023/10/22 08:17:27;;;;;;;0.70;0.70;;;;;;;;;;6184565;23;20168;-88
2023/10/22 08:19:55;;;;;;;0.63;0.63;;;;;;;;;;6184657;23;20191;-90
2023/10/22 08:22:24;;;;;;;0.60;0.60;;;;;;;;;;6184636;23;20171;-90
2023/10/22 08:24:54;;;;;;;2.10;0.60;;;;;;;;;;6184982;23;20180;-89
2023/10/22 08:27:22;;;;;;;0.97;0.90;;;;;;;;;;6184807;23;20199;-89
2023/10/22 08:29:51;;;;;;;0.53;0.53;;;;;;;;;;6184739;23;20175;-90
2023/10/22 08:32:19;;;;;;;1.20;1.13;;;;;;;;;;6184987;23;20238;-89
2023/10/22 08:34:48;;;;;;;2.10;1.03;;;;;;;;;;6184935;23;20182;-90
2023/10/22 08:37:17;;;;;;;2.50;0.87;;;;;;;;;;6184330;23;20262;-88
2023/10/22 08:39:45;;;;;;;0.57;0.57;;;;;;;;;;6184170;23;20193;-90
2023/10/22 08:42:22;;;;;;;0.87;0.70;;;;;;;;;;6183810;23;20179;-90
2023/10/22 08:44:52;;;;;;;0.50;0.50;;;;;;;;;;6185320;23;20178;-90
2023/10/22 08:47:21;;;;;;;0.80;0.80;;;;;;;;;;6185486;23;20179;-90
2023/10/22 08:49:50;;;;;;;0.50;0.50;;;;;;;;;;6185504;23;20279;-89
2023/10/22 08:52:18;;;;;;;4.00;1.17;;;;;;;;;;6185401;23;20205;-90
2023/10/22 08:54:47;;;;;;;1.40;0.93;;;;;;;;;;6184726;23;20190;-90
2023/10/22 08:57:16;;;;;;;0.80;0.80;;;;;;;;;;6185765;23;20264;-89
2023/10/22 08:59:46;;;;;;;0.70;0.70;;;;;;;;;;6184975;23;20211;-90
2023/10/22 09:02:16;;;;;;;0.87;0.87;;;;;;;;;;6185606;23;20204;-90
2023/10/22 09:04:45;;;;;;;3.10;0.77;;;;;;;;;;6185545;23;20208;-90
2023/10/22 09:07:13;;;;;;;0.60;0.60;;;;;;;;;;6184678;23;20183;-90
2023/10/22 09:09:43;;;;;;;0.50;0.50;;;;;;;;;;6184256;23;20191;-90
2023/10/22 09:12:13;;;;;;;1.00;0.90;;;;;;;;;;6183880;23;20171;-90
2023/10/22 09:14:44;;;;;;;3.13;1.10;;;;;;;;;;6182949;23;20208;-90
2023/10/22 09:17:17;;;;;;;0.70;0.70;;;;;;;;;;6184052;23;20175;-90
2023/10/22 09:19:48;;;;;;;0.87;0.87;;;;;;;;;;6183868;23;20271;-91
2023/10/22 09:22:23;;;;;;;2.53;0.80;;;;;;;;;;6185236;23;20179;-91
2023/10/22 09:24:53;;;;;;;0.50;0.50;;;;;;;;;;6185265;23;20171;-91
2023/10/22 09:27:26;;;;;;;0.73;0.73;;;;;;;;;;6184873;23;20235;-91
2023/10/22 09:29:54;;;;;;;0.50;0.50;;;;;;;;;;6185548;23;20202;-90
2023/10/22 09:32:25;;;;;;;0.50;0.50;;;;;;;;;;6185082;23;20202;-90
2023/10/22 09:34:57;;;;;;;0.50;0.50;;;;;;;;;;6184607;23;20180;-90
2023/10/22 09:37:25;;;;;;;0.50;0.50;;;;;;;;;;6183775;23;20200;-90
2023/10/22 09:39:54;;;;;;;0.80;0.50;;;;;;;;;;6184843;23;20166;-91
2023/10/22 09:42:23;;;;;;;2.53;0.83;;;;;;;;;;6185130;23;20177;-90
2023/10/22 09:44:51;;;;;;;0.50;0.50;;;;;;;;;;6185126;23;20275;-90
2023/10/22 09:47:21;;;;;;;1.17;0.70;;;;;;;;;;6184959;23;20177;-89
2023/10/22 09:49:53;;;;;;;0.67;0.67;;;;;;;;;;6185062;23;20196;-90
2023/10/22 09:52:24;;;;;;;0.40;0.40;;;;;;;;;;6185803;23;20196;-89
2023/10/22 09:54:55;;;;;;;0.80;0.80;;;;;;;;;;6184893;23;20173;-88
2023/10/22 09:57:27;;;;;;;0.50;0.50;;;;;;;;;;6184596;23;20184;-90
2023/10/22 10:00:01;;;;;;;0.87;0.87;;;;;;;;;;6185290;23;20235;-89
2023/10/22 10:02:30;;;;;;;0.60;0.60;;;;;;;;;;6185009;23;20176;-89
2023/10/22 10:05:00;;;;;;;0.60;0.60;;;;;;;;;;6183869;23;20245;-88
2023/10/22 10:07:28;;;;;;;0.70;0.70;;;;;;;;;;6184751;23;20177;-89
2023/10/22 10:09:57;;;;;;;1.47;0.70;;;;;;;;;;6184600;23;20193;-90
2023/10/22 10:12:28;;;;;;;1.70;1.00;;;;;;;;;;6185286;23;20182;-90
2023/10/22 10:14:56;;;;;;;0.73;0.73;;;;;;;;;;6183845;23;20203;-90
2023/10/22 10:17:25;;;;;;;1.50;0.93;;;;;;;;;;6184943;23;20192;-90
2023/10/22 10:19:53;;;;;;;1.60;1.50;;;;;;;;;;6184656;23;20192;-90
2023/10/22 10:22:39;;;;;;;2.47;1.60;;;;;;;;;;6185188;23;20167;-90
2023/10/22 10:25:28;;;;;;;1.47;1.20;;;;;;;;;;6185005;23;20169;-90
2023/10/22 10:27:57;;;;;;;1.03;1.03;;;;;;;;;;6185696;23;20171;-89
2023/10/22 10:30:26;;;;;;;1.40;0.80;;;;;;;;;;6184975;23;20202;-90
2023/10/22 10:32:54;;;;;;;0.70;0.70;;;;;;;;;;6186812;23;20205;-90
2023/10/22 10:35:44;;;;;;;0.70;0.70;;;;;;;;;;6187229;23;20247;-90
2023/10/22 10:38:24;;;;;;;1.93;1.30;;;;;;;;;;6187722;23;20180;-90
2023/10/22 10:40:54;;;;;;;1.30;1.20;;;;;;;;;;6187617;23;20177;-90
2023/10/22 10:43:57;;;;;;;0.60;0.60;;;;;;;;;;6186691;23;20186;-90
2023/10/22 10:46:26;;;;;;;1.13;0.90;;;;;;;;;;6187136;23;20173;-90
2023/10/22 10:48:55;;;;;;;0.60;0.60;;;;;;;;;;6186381;23;20238;-91
2023/10/22 10:51:25;;;;;;;0.80;0.73;;;;;;;;;;6186893;23;20180;-90
2023/10/22 10:54:14;;;;;;;0.60;0.60;;;;;;;;;;6186014;23;20240;-90
2023/10/22 10:56:48;;;;;;;0.60;0.60;;;;;;;;;;6187031;23;20179;-90
2023/10/22 10:59:33;;;;;;;1.03;1.03;;;;;;;;;;6187264;23;20173;-90
2023/10/22 11:02:02;;;;;;;3.20;1.07;;;;;;;;;;6186622;23;20177;-90
2023/10/22 11:04:31;;;;;;;2.10;0.90;;;;;;;;;;6186213;23;20282;-91
2023/10/22 11:07:00;;;;;;;0.60;0.60;;;;;;;;;;6186981;23;20170;-90
2023/10/22 11:09:48;;;;;;;2.20;1.00;;;;;;;;;;6186654;23;20293;-90
2023/10/22 11:12:21;;;;;;;0.87;0.87;;;;;;;;;;6186282;23;20235;-90
2023/10/22 11:14:55;;;;;;;3.47;0.90;;;;;;;;;;6185753;23;20204;-90
2023/10/22 11:17:24;;;;;;;1.50;0.80;;;;;;;;;;6187147;23;20179;-90
2023/10/22 11:19:52;;;;;;;0.70;0.70;;;;;;;;;;6186585;23;20201;-91
2023/10/22 11:22:21;;;;;;;4.63;1.03;;;;;;;;;;6186060;23;20182;-90
2023/10/22 11:24:49;;;;;;;0.77;0.77;;;;;;;;;;6185458;23;20179;-90
2023/10/22 11:27:20;;;;;;;1.20;0.80;;;;;;;;;;6187132;23;20174;-90
2023/10/22 11:29:49;;;;;;;1.63;1.10;;;;;;;;;;6186248;23;20199;-90
2023/10/22 11:32:19;;;;;;;0.90;0.80;;;;;;;;;;6186636;23;20181;-90
2023/10/22 11:34:54;;;;;;;0.80;0.80;;;;;;;;;;6186720;23;20181;-90
2023/10/22 11:37:23;;;;;;;0.83;0.83;;;;;;;;;;6187049;23;20275;-90
2023/10/22 11:39:52;;;;;;;1.37;0.80;;;;;;;;;;6186462;23;20219;-91
2023/10/22 11:42:23;;;;;;;1.77;1.00;;;;;;;;;;6185759;23;20180;-91
2023/10/22 11:44:51;;;;;;;1.03;0.80;;;;;;;;;;6185768;23;20171;-90
2023/10/22 11:47:24;;;;;;;2.97;1.13;;;;;;;;;;6186288;23;20173;-90
2023/10/22 11:49:54;;;;;;;0.50;0.50;;;;;;;;;;6185922;23;20243;-89
2023/10/22 11:52:38;;;;;;;0.90;0.80;;;;;;;;;;6185574;23;20224;-90
2023/10/22 11:55:07;;;;;;;1.90;0.70;;;;;;;;;;6186707;23;20185;-90
2023/10/22 11:57:47;;;;;;;1.47;1.10;;;;;;;;;;6186987;23;20178;-89
2023/10/22 12:00:15;;;;;;;1.03;0.87;;;;;;;;;;6185628;23;20244;-89
2023/10/22 12:02:44;;;;;;;1.80;1.50;;;;;;;;;;6185955;23;20185;-91
2023/10/22 12:05:14;;;;;;;1.27;0.90;;;;;;;;;;6185966;23;20321;-90
2023/10/22 12:07:42;;;;;;;3.23;1.27;;;;;;;;;;6186650;23;20181;-90
2023/10/22 12:10:11;;;;;;;1.07;0.97;;;;;;;;;;6185727;23;20189;-90
2023/10/22 12:12:39;;;;;;;3.63;1.40;;;;;;;;;;6186112;23;20211;-90
2023/10/22 12:15:12;;;;;;;1.33;0.90;;;;;;;;;;6185914;23;20209;-90
2023/10/22 12:17:41;;;;;;;0.60;0.60;;;;;;;;;;6184944;23;20179;-88
2023/10/22 12:20:10;;;;;;;1.10;0.67;;;;;;;;;;6183962;23;20191;-88
2023/10/22 12:22:39;;;;;;;0.90;0.83;;;;;;;;;;6185051;23;20178;-88
2023/10/22 12:25:08;;;;;;;0.57;0.57;;;;;;;;;;6184559;23;20246;-87
2023/10/22 12:27:37;;;;;;;0.80;0.70;;;;;;;;;;6184769;23;20180;-87
2023/10/22 12:30:06;;;;;;;2.57;1.00;;;;;;;;;;6184376;23;20303;-87
2023/10/22 12:32:36;;;;;;;0.60;0.60;;;;;;;;;;6184715;23;20249;-87
2023/10/22 12:35:05;;;;;;;1.77;1.23;;;;;;;;;;6184602;23;20232;-87
2023/10/22 12:37:33;;;;;;;0.60;0.60;;;;;;;;;;6184549;23;20173;-87
2023/10/22 12:40:05;;;;;;;1.03;0.87;;;;;;;;;;6184059;23;20174;-88
2023/10/22 12:42:36;;;;;;;2.20;1.37;;;;;;;;;;6184594;23;20268;-87
2023/10/22 12:45:05;;;;;;;3.30;1.47;;;;;;;;;;6184231;23;20173;-87
2023/10/22 12:47:35;;;;;;;0.50;0.50;;;;;;;;;;6184470;23;20174;-87
2023/10/22 12:50:04;;;;;;;1.03;0.70;;;;;;;;;;6183791;23;20206;-87
2023/10/22 12:52:33;;;;;;;1.13;0.97;;;;;;;;;;6183904;23;20176;-87
2023/10/22 12:55:02;;;;;;;2.80;0.90;;;;;;;;;;6184510;23;20178;-87
2023/10/22 12:57:30;;;;;;;0.93;0.80;;;;;;;;;;6183862;23;20176;-87
2023/10/22 13:00:00;;;;;;;0.83;0.70;;;;;;;;;;6184144;23;20172;-87
2023/10/22 13:02:33;;;;;;;0.70;0.70;;;;;;;;;;6184195;23;20199;-87
2023/10/22 13:05:04;;;;;;;0.70;0.70;;;;;;;;;;6184170;23;20221;-87
2023/10/22 13:07:33;;;;;;;1.70;0.97;;;;;;;;;;6184085;23;20224;-86
2023/10/22 13:10:03;;;;;;;2.77;1.07;;;;;;;;;;6183651;23;20201;-87
2023/10/22 13:12:31;;;;;;;0.50;0.50;;;;;;;;;;6184410;23;20183;-87
2023/10/22 13:15:00;;;;;;;3.00;1.17;;;;;;;;;;6183952;23;20255;-87
2023/10/22 13:17:30;;;;;;;0.80;0.80;;;;;;;;;;6183854;23;20182;-87
2023/10/22 13:19:59;;;;;;;0.70;0.70;;;;;;;;;;6184015;23;20193;-87
2023/10/22 13:22:29;;;;;;;1.10;1.10;;;;;;;;;;6184615;23;20209;-87
2023/10/22 13:24:58;;;;;;;0.60;0.60;;;;;;;;;;6184328;23;20182;-87
2023/10/22 13:27:26;;;;;;;1.13;0.90;;;;;;;;;;6183666;23;20197;-88
2023/10/22 13:29:55;;;;;;;2.67;1.10;;;;;;;;;;6183613;23;20257;-88
2023/10/22 13:32:23;;;;;;;1.10;1.00;;;;;;;;;;6183641;23;20178;-87
2023/10/22 13:34:52;;;;;;;0.67;0.67;;;;;;;;;;6183670;23;20230;-87
2023/10/22 13:37:21;;;;;;;2.00;0.70;;;;;;;;;;6183970;23;20190;-87
2023/10/22 13:39:50;;;;;;;0.70;0.70;;;;;;;;;;6183911;23;20170;-87
2023/10/22 13:42:18;;;;;;;0.70;0.70;;;;;;;;;;6184053;23;20180;-87
2023/10/22 13:44:47;;;;;;;0.80;0.80;;;;;;;;;;6184010;23;20181;-87
2023/10/22 13:47:16;;;;;;;1.73;1.63;;;;;;;;;;6183702;23;20208;-87
2023/10/22 13:49:45;;;;;;;0.50;0.50;;;;;;;;;;6183960;23;20179;-87
2023/10/22 13:52:13;;;;;;;0.50;0.50;;;;;;;;;;6183932;23;20204;-88
2023/10/22 13:54:42;;;;;;;0.87;0.83;;;;;;;;;;6184065;23;20184;-87
2023/10/22 13:57:12;;;;;;;2.30;0.80;;;;;;;;;;6183529;23;20174;-87
2023/10/22 13:59:40;;;;;;;0.77;0.77;;;;;;;;;;6183987;23;20185;-87
2023/10/22 14:02:09;;;;;;;0.90;0.90;;;;;;;;;;6183611;23;20174;-87
2023/10/22 14:04:38;;;;;;;1.03;0.70;;;;;;;;;;6184161;23;20393;-87
2023/10/22 14:07:07;;;;;;;0.80;0.80;;;;;;;;;;6183148;23;20174;-87
2023/10/22 14:09:36;;;;;;;1.47;1.10;;;;;;;;;;6183649;23;20192;-87
2023/10/22 14:12:05;;;;;;;4.93;0.93;;;;;;;;;;6183960;23;20220;-87
2023/10/22 14:14:37;;;;;;;0.97;0.90;;;;;;;;;;6183481;23;20205;-87
2023/10/22 14:17:06;;;;;;;0.83;0.73;;;;;;;;;;6182918;23;20181;-87
2023/10/22 14:19:35;;;;;;;0.60;0.60;;;;;;;;;;6183405;23;20265;-87
2023/10/22 14:22:03;;;;;;;1.20;0.67;;;;;;;;;;6183447;23;20180;-87
2023/10/22 14:24:35;;;;;;;0.50;0.50;;;;;;;;;;6183261;23;20189;-87
2023/10/22 14:27:04;;;;;;;1.00;1.00;;;;;;;;;;6182684;23;20221;-87
2023/10/22 14:29:42;;;;;;;0.70;0.70;;;;;;;;;;6183367;23;20227;-87
2023/10/22 14:32:11;;;;;;;0.87;0.80;;;;;;;;;;6183673;23;20204;-87
2023/10/22 14:34:39;;;;;;;0.63;0.63;;;;;;;;;;6183202;23;20294;-87
2023/10/22 14:37:08;;;;;;;1.23;0.90;;;;;;;;;;6182958;23;20243;-87
2023/10/22 14:39:38;;;;;;;2.33;0.70;;;;;;;;;;6183764;23;20245;-86
2023/10/22 14:42:07;;;;;;;0.73;0.60;;;;;;;;;;6183557;23;20174;-87
2023/10/22 14:44:36;;;;;;;0.83;0.83;;;;;;;;;;6183269;23;20206;-87
2023/10/22 14:47:06;;;;;;;0.77;0.77;;;;;;;;;;6183282;23;20182;-87
2023/10/22 14:49:36;;;;;;;0.57;0.57;;;;;;;;;;6183653;23;20204;-87
2023/10/22 14:52:05;;;;;;;0.50;0.50;;;;;;;;;;6183357;23;20229;-87
2023/10/22 14:54:33;;;;;;;0.70;0.70;;;;;;;;;;6183399;23;20170;-87
2023/10/22 14:57:02;;;;;;;0.53;0.53;;;;;;;;;;6183084;23;20176;-87
2023/10/22 14:59:31;;;;;;;1.80;1.70;;;;;;;;;;6183461;23;20236;-87